Central Virginia Flyers


Central Virginia Flyers is a 10 member flying club based in Richmond, VA at Hanover County Airport (KOFP). We own N787AT, a 1977 Cessna 172 with 180hp conversion. If you are interested in membership, please contact Brenton at [email protected]


Aviation Digital Data Service (ADDS)

Output produced by METARs form (1845 UTC 30 August 2016)
found at http://aviationweather.gov/adds/metars/
 
KOFP 301754Z AUTO VRB06KT 10SM CLR 32/18 A3010 RMK AO2 SLP190 T03220183 10322 20222 58016
KRIC 301754Z 33005KT 10SM SCT050 SCT300 33/18 A3008 RMK AO2 SLP187 T03330178 10339 20233 58015
KRIC 301720Z 3018/3118 10006KT P6SM SCT050 
     FM310500 00000KT P6SM SKC 
     TEMPO 3108/3112 4SM BR 
     FM311300 12005KT P6SM SCT250